createdAt,value
2019-04-27T00:02:34.297Z,17.67
2019-04-27T00:05:40.427Z,18.90
2019-04-27T00:08:35.209Z,17.23
2019-04-27T00:11:23.195Z,16.73
2019-04-27T00:13:55.308Z,17.53
2019-04-27T00:16:40.487Z,16.50
2019-04-27T00:19:35.346Z,17.40
2019-04-27T00:22:29.947Z,16.43
2019-04-27T00:25:03.539Z,15.13
2019-04-27T00:27:34.993Z,15.60
2019-04-27T00:30:07.701Z,15.40
2019-04-27T00:32:39.880Z,14.93
2019-04-27T00:35:13.853Z,14.27
2019-04-27T00:38:04.256Z,15.60
2019-04-27T00:40:39.747Z,13.07
2019-04-27T00:43:14.048Z,12.43
2019-04-27T00:45:46.484Z,13.27
2019-04-27T00:48:18.880Z,12.50
2019-04-27T00:50:53.499Z,13.27
2019-04-27T00:53:25.390Z,11.93
2019-04-27T00:56:15.274Z,12.03
2019-04-27T00:59:11.188Z,12.40
2019-04-27T01:01:56.585Z,11.30
2019-04-27T01:04:31.497Z,11.63
2019-04-27T01:07:04.154Z,11.53
2019-04-27T01:09:36.140Z,11.47
2019-04-27T01:12:07.671Z,11.43
2019-04-27T01:14:42.816Z,11.30
2019-04-27T01:17:15.686Z,12.40
2019-04-27T01:19:49.261Z,11.83
2019-04-27T01:22:21.715Z,12.30
2019-04-27T01:24:53.711Z,11.10
2019-04-27T01:27:53.427Z,11.00
2019-04-27T01:30:39.310Z,11.60
2019-04-27T01:33:10.988Z,11.33
2019-04-27T01:35:42.484Z,10.77
2019-04-27T01:38:14.269Z,11.70
2019-04-27T01:40:45.511Z,11.83
2019-04-27T01:43:18.653Z,11.00
2019-04-27T01:45:50.169Z,11.20
2019-04-27T01:48:25.237Z,12.17
2019-04-27T01:50:55.624Z,11.80
2019-04-27T01:53:28.625Z,12.37
2019-04-27T01:56:00.342Z,11.23
2019-04-27T01:58:32.048Z,11.23
2019-04-27T02:01:22.447Z,10.47
2019-04-27T02:04:13.166Z,12.03
2019-04-27T02:06:48.700Z,11.67
2019-04-27T02:09:21.508Z,11.60
2019-04-27T02:11:53.512Z,10.07
2019-04-27T02:14:24.843Z,10.47
2019-04-27T02:16:56.779Z,10.40
2019-04-27T02:19:29.225Z,10.50
2019-04-27T02:22:00.774Z,12.90
2019-04-27T02:24:32.273Z,12.10
2019-04-27T02:27:03.549Z,11.97
2019-04-27T02:29:56.442Z,12.00
2019-04-27T02:32:49.737Z,13.40
2019-04-27T02:35:21.114Z,13.30
2019-04-27T02:37:52.452Z,13.13
2019-04-27T02:40:55.815Z,14.10
2019-04-27T02:43:49.900Z,13.60
2019-04-27T02:46:22.482Z,13.33
2019-04-27T02:49:00.654Z,13.70
2019-04-27T02:51:49.587Z,13.00
2019-04-27T02:54:20.994Z,14.20
2019-04-27T02:56:52.986Z,12.17
2019-04-27T02:59:24.893Z,12.17
2019-04-27T03:02:03.210Z,12.93
2019-04-27T03:04:35.281Z,12.77
2019-04-27T03:07:07.683Z,13.07
2019-04-27T03:09:39.504Z,13.63
2019-04-27T03:12:13.344Z,14.50
2019-04-27T03:15:13.447Z,16.23
2019-04-27T03:18:13.443Z,13.13
2019-04-27T03:21:01.274Z,13.00
2019-04-27T03:23:32.892Z,14.47
2019-04-27T03:26:19.643Z,13.60
2019-04-27T03:28:52.828Z,12.97
2019-04-27T03:31:25.634Z,14.10
2019-04-27T03:34:03.372Z,12.97
2019-04-27T03:36:32.006Z,16.60
2019-04-27T03:39:03.704Z,14.40
2019-04-27T03:41:36.337Z,13.40
2019-04-27T03:44:09.380Z,14.30
2019-04-27T03:46:41.549Z,13.40
2019-04-27T03:49:27.854Z,14.90
2019-04-27T03:52:03.108Z,13.70
2019-04-27T03:54:56.441Z,13.90
2019-04-27T03:57:41.517Z,15.20
2019-04-27T04:00:20.158Z,16.50
2019-04-27T04:02:52.482Z,15.67
2019-04-27T04:05:24.452Z,14.23
2019-04-27T04:07:57.282Z,13.80
2019-04-27T04:10:31.910Z,14.13
2019-04-27T04:13:22.715Z,15.40
2019-04-27T04:16:26.073Z,13.80
2019-04-27T04:19:03.397Z,15.40
2019-04-27T04:21:34.999Z,13.50
2019-04-27T04:24:08.980Z,13.63
2019-04-27T04:26:40.382Z,12.80
2019-04-27T04:29:13.555Z,13.70
2019-04-27T04:31:46.111Z,15.40
2019-04-27T04:34:19.835Z,13.57
2019-04-27T04:36:50.974Z,13.20
2019-04-27T04:39:22.912Z,13.37
2019-04-27T04:42:19.825Z,13.40
2019-04-27T04:45:11.157Z,12.60
2019-04-27T04:47:50.671Z,13.23
2019-04-27T04:50:22.743Z,13.03
2019-04-27T04:52:55.394Z,12.53
2019-04-27T04:55:30.328Z,14.33
2019-04-27T04:58:02.110Z,15.40
2019-04-27T05:00:33.674Z,13.03
2019-04-27T05:03:06.250Z,14.10
2019-04-27T05:05:41.093Z,15.93
2019-04-27T05:08:11.939Z,15.43
2019-04-27T05:10:43.978Z,12.43
2019-04-27T05:13:16.202Z,12.97
2019-04-27T05:15:48.660Z,13.13
2019-04-27T05:18:21.064Z,11.20
2019-04-27T05:21:01.283Z,12.53
2019-04-27T05:23:33.933Z,11.67
2019-04-27T05:26:05.708Z,12.43
2019-04-27T05:28:38.397Z,12.47
2019-04-27T05:31:10.466Z,11.67
2019-04-27T05:33:42.784Z,12.03
2019-04-27T05:36:15.306Z,14.13
2019-04-27T05:38:49.581Z,14.77
2019-04-27T05:41:20.951Z,13.47
2019-04-27T05:44:24.051Z,13.07
2019-04-27T05:47:23.046Z,11.70
2019-04-27T05:49:58.979Z,14.37
2019-04-27T05:52:32.147Z,14.00
2019-04-27T05:55:04.113Z,14.13
2019-04-27T05:57:36.550Z,13.40
2019-04-27T06:00:09.828Z,15.40
2019-04-27T06:02:41.742Z,13.93
2019-04-27T06:05:13.870Z,12.80
2019-04-27T06:07:48.785Z,12.83
2019-04-27T06:10:21.594Z,13.33
2019-04-27T06:12:53.598Z,10.87
2019-04-27T06:15:25.208Z,9.40
2019-04-27T06:17:56.824Z,9.70
2019-04-27T06:20:28.777Z,10.47
2019-04-27T06:23:00.258Z,10.53
2019-04-27T06:25:31.942Z,10.23
2019-04-27T06:28:06.589Z,8.80
2019-04-27T06:30:41.441Z,8.67
2019-04-27T06:33:13.867Z,9.00
2019-04-27T06:35:49.461Z,8.90
2019-04-27T06:38:21.725Z,8.37
2019-04-27T06:40:54.213Z,9.93
2019-04-27T06:43:29.415Z,9.47
2019-04-27T06:46:01.331Z,8.57
2019-04-27T06:48:33.009Z,9.67
2019-04-27T06:51:05.730Z,9.17
2019-04-27T06:53:39.319Z,9.10
2019-04-27T06:56:10.905Z,8.90
2019-04-27T06:58:42.661Z,9.33
2019-04-27T07:01:14.727Z,9.60
2019-04-27T07:03:46.409Z,10.50
2019-04-27T07:06:18.794Z,9.37
2019-04-27T07:08:50.841Z,9.43
2019-04-27T07:11:22.715Z,8.67
2019-04-27T07:13:54.147Z,10.80
2019-04-27T07:16:26.039Z,10.60
2019-04-27T07:18:59.333Z,11.33
2019-04-27T07:21:31.689Z,11.90
2019-04-27T07:24:03.674Z,10.77
2019-04-27T07:26:35.164Z,9.70
2019-04-27T07:29:09.367Z,10.33
2019-04-27T07:31:40.671Z,10.53
2019-04-27T07:34:12.191Z,10.90
2019-04-27T07:36:51.411Z,10.90
2019-04-27T07:39:29.302Z,9.27
2019-04-27T07:42:02.489Z,9.80
2019-04-27T07:44:50.733Z,10.00
2019-04-27T07:47:30.746Z,8.97
2019-04-27T07:50:01.488Z,10.23
2019-04-27T07:52:33.023Z,9.63
2019-04-27T07:55:05.281Z,9.87
2019-04-27T07:57:40.359Z,10.00
2019-04-27T08:00:14.572Z,9.37
2019-04-27T08:02:46.169Z,9.43
2019-04-27T08:05:20.571Z,7.70
2019-04-27T08:07:51.855Z,9.43
2019-04-27T08:10:23.843Z,9.43
2019-04-27T08:12:55.443Z,9.63
2019-04-27T08:15:26.803Z,8.27
2019-04-27T08:17:59.186Z,10.47
2019-04-27T08:20:35.118Z,9.03
2019-04-27T08:23:49.532Z,10.17
2019-04-27T08:26:32.842Z,19.07
2019-04-27T08:29:21.620Z,12.30
2019-04-27T08:32:09.700Z,10.50
2019-04-27T08:34:42.704Z,9.30
2019-04-27T08:37:14.420Z,9.77
2019-04-27T08:39:49.580Z,9.37
2019-04-27T08:42:22.315Z,8.70
2019-04-27T08:44:54.261Z,9.80
2019-04-27T08:47:26.750Z,10.43
2019-04-27T08:49:59.845Z,8.93
2019-04-27T08:52:33.428Z,9.90
2019-04-27T08:55:05.469Z,8.33
2019-04-27T08:57:38.790Z,9.60
2019-04-27T09:00:11.383Z,8.77
2019-04-27T09:02:47.399Z,10.30
2019-04-27T09:05:28.841Z,9.53
2019-04-27T09:08:29.237Z,10.70
2019-04-27T09:11:18.644Z,10.10
2019-04-27T09:14:09.242Z,11.73
2019-04-27T09:17:11.008Z,10.53
2019-04-27T09:20:11.765Z,12.53
2019-04-27T09:22:49.349Z,11.93
2019-04-27T09:25:23.269Z,12.07
2019-04-27T09:27:59.596Z,12.30
2019-04-27T09:30:31.348Z,13.53
2019-04-27T09:33:03.627Z,14.17
2019-04-27T09:35:37.363Z,13.13
2019-04-27T09:38:12.988Z,13.93
2019-04-27T09:40:48.318Z,12.43
2019-04-27T09:43:20.065Z,15.03
2019-04-27T09:45:51.599Z,14.00
2019-04-27T09:48:25.900Z,13.63
2019-04-27T09:50:58.375Z,14.47
2019-04-27T09:53:30.557Z,15.17
2019-04-27T09:56:01.980Z,14.13
2019-04-27T09:58:34.341Z,15.83
2019-04-27T10:01:06.974Z,16.13
2019-04-27T10:03:38.939Z,13.50
2019-04-27T10:06:11.261Z,14.83
2019-04-27T10:08:43.688Z,15.40
2019-04-27T10:11:26.490Z,15.47
2019-04-27T10:13:59.041Z,15.80
2019-04-27T10:16:31.579Z,15.00
2019-04-27T10:19:03.089Z,16.50
2019-04-27T10:21:36.578Z,20.70
2019-04-27T10:24:08.384Z,18.93
2019-04-27T10:26:43.592Z,16.37
2019-04-27T10:29:14.107Z,16.20
2019-04-27T10:31:46.086Z,15.87
2019-04-27T10:34:19.072Z,16.27
2019-04-27T10:36:50.603Z,18.30
2019-04-27T10:39:22.686Z,16.50
2019-04-27T10:41:56.293Z,15.67
2019-04-27T10:44:28.008Z,16.23
2019-04-27T10:47:00.021Z,15.83
2019-04-27T10:49:31.659Z,16.13
2019-04-27T10:52:05.736Z,15.27
2019-04-27T10:54:38.474Z,16.60
2019-04-27T10:57:10.310Z,19.70
2019-04-27T10:59:42.314Z,18.40
2019-04-27T11:02:13.673Z,15.37
2019-04-27T11:04:56.596Z,14.93
2019-04-27T11:07:33.711Z,14.80
2019-04-27T11:10:09.756Z,15.57
2019-04-27T11:12:40.914Z,16.23
2019-04-27T11:15:13.622Z,15.60
2019-04-27T11:17:47.545Z,15.10
2019-04-27T11:20:21.094Z,15.73
2019-04-27T11:23:06.157Z,17.07
2019-04-27T11:25:27.455Z,17.77
2019-04-27T11:27:59.507Z,17.40
2019-04-27T11:30:32.043Z,17.03
2019-04-27T11:33:06.281Z,18.80
2019-04-27T11:35:51.875Z,18.70
2019-04-27T11:38:24.407Z,20.83
2019-04-27T11:40:56.787Z,21.13
2019-04-27T11:43:28.747Z,19.43
2019-04-27T11:46:00.749Z,19.07
2019-04-27T11:48:32.513Z,17.63
2019-04-27T11:51:04.554Z,18.60
2019-04-27T11:53:36.668Z,19.10
2019-04-27T11:56:08.472Z,19.43
2019-04-27T11:58:40.351Z,18.10
2019-04-27T12:01:13.858Z,17.97
2019-04-27T12:03:46.088Z,17.27
2019-04-27T12:06:17.766Z,19.63
2019-04-27T12:08:49.992Z,17.17
2019-04-27T12:11:21.685Z,18.63
2019-04-27T12:13:56.194Z,17.93
2019-04-27T12:16:28.359Z,19.90
2019-04-27T12:19:00.595Z,18.30
2019-04-27T12:21:31.672Z,20.07
2019-04-27T12:24:04.188Z,23.03
2019-04-27T12:26:43.302Z,22.00
2019-04-27T12:29:19.289Z,20.30
2019-04-27T12:31:51.522Z,18.93
2019-04-27T12:34:23.313Z,20.70
2019-04-27T12:36:55.556Z,21.83
2019-04-27T12:39:27.590Z,20.13
2019-04-27T12:41:59.944Z,19.70
2019-04-27T12:44:40.466Z,20.33
2019-04-27T12:47:07.709Z,20.43
2019-04-27T12:49:39.582Z,19.50
2019-04-27T12:52:11.556Z,19.60
2019-04-27T12:54:56.866Z,19.47
2019-04-27T12:57:53.303Z,20.13
2019-04-27T13:00:33.119Z,20.80
2019-04-27T13:03:06.155Z,19.27
2019-04-27T13:05:38.754Z,21.83
2019-04-27T13:08:11.289Z,20.77
2019-04-27T13:10:46.462Z,21.53
2019-04-27T13:13:19.871Z,19.90
2019-04-27T13:15:52.149Z,19.90
2019-04-27T13:18:25.821Z,20.90
2019-04-27T13:20:58.239Z,21.37
2019-04-27T13:23:30.205Z,18.90
2019-04-27T13:26:02.631Z,21.13
2019-04-27T13:28:35.822Z,20.17
2019-04-27T13:31:07.631Z,19.27
2019-04-27T13:33:39.556Z,19.40
2019-04-27T13:36:11.730Z,19.13
2019-04-27T13:38:43.521Z,18.87
2019-04-27T13:41:26.202Z,21.40
2019-04-27T13:43:50.518Z,20.00
2019-04-27T13:46:43.819Z,18.50
2019-04-27T13:49:41.192Z,18.60
2019-04-27T13:52:26.758Z,18.47
2019-04-27T13:54:58.160Z,18.37
2019-04-27T13:57:30.058Z,18.10
2019-04-27T14:00:02.434Z,19.13
2019-04-27T14:02:34.936Z,19.30
2019-04-27T14:05:08.294Z,18.93
2019-04-27T14:07:40.935Z,19.23
2019-04-27T14:10:13.906Z,19.87
2019-04-27T14:12:48.765Z,21.37
2019-04-27T14:15:21.872Z,18.70
2019-04-27T14:17:55.458Z,19.70
2019-04-27T14:20:29.633Z,19.10
2019-04-27T14:23:14.963Z,19.13
2019-04-27T14:25:47.233Z,19.40
2019-04-27T14:28:20.089Z,19.50
2019-04-27T14:30:52.964Z,20.03
2019-04-27T14:33:25.686Z,18.03
2019-04-27T14:35:59.410Z,19.47
2019-04-27T14:38:31.950Z,18.10
2019-04-27T14:41:04.847Z,19.30
2019-04-27T14:43:37.510Z,17.97
2019-04-27T14:46:10.791Z,18.73
2019-04-27T14:48:44.230Z,18.60
2019-04-27T14:51:18.743Z,18.00
2019-04-27T14:53:52.340Z,19.27
2019-04-27T14:56:25.006Z,18.93
2019-04-27T14:58:58.763Z,18.97
2019-04-27T15:01:31.751Z,18.13
2019-04-27T15:04:04.433Z,18.63
2019-04-27T15:06:38.350Z,18.60
2019-04-27T15:09:13.462Z,18.07
2019-04-27T15:11:49.197Z,19.00
2019-04-27T15:14:23.690Z,17.73
2019-04-27T15:16:56.357Z,17.10
2019-04-27T15:19:35.190Z,18.07
2019-04-27T15:22:16.133Z,16.27
2019-04-27T15:24:48.894Z,16.77
2019-04-27T15:27:22.087Z,16.73
2019-04-27T15:29:55.903Z,16.50
2019-04-27T15:32:40.662Z,17.00
2019-04-27T15:35:29.752Z,17.00
2019-04-27T15:38:11.292Z,17.03
2019-04-27T15:41:12.512Z,17.47
2019-04-27T15:43:45.712Z,16.60
2019-04-27T15:46:18.442Z,17.93
2019-04-27T15:48:54.189Z,16.90
2019-04-27T15:51:28.232Z,16.10
2019-04-27T15:54:02.038Z,16.20
2019-04-27T15:56:35.536Z,15.23
2019-04-27T15:59:09.504Z,16.70
2019-04-27T16:01:42.231Z,14.70
2019-04-27T16:04:15.895Z,15.90
2019-04-27T16:06:48.840Z,16.83
2019-04-27T16:09:25.373Z,16.67
2019-04-27T16:12:06.731Z,16.93
2019-04-27T16:14:30.813Z,17.70
2019-04-27T16:17:08.100Z,16.90
2019-04-27T16:19:42.387Z,17.77
2019-04-27T16:22:11.782Z,17.90
2019-04-27T16:24:44.642Z,15.47
2019-04-27T16:27:19.939Z,16.40
2019-04-27T16:29:53.064Z,17.27
2019-04-27T16:32:27.126Z,17.20
2019-04-27T16:34:59.801Z,16.73
2019-04-27T16:37:56.328Z,16.90
2019-04-27T16:40:30.004Z,18.07
2019-04-27T16:43:02.234Z,16.70
2019-04-27T16:45:35.292Z,17.17
2019-04-27T16:48:09.141Z,15.70
2019-04-27T16:50:42.089Z,16.70
2019-04-27T16:53:15.763Z,15.10
2019-04-27T16:55:59.491Z,16.00
2019-04-27T16:58:22.189Z,16.43
2019-04-27T17:00:54.600Z,16.30
2019-04-27T17:03:26.849Z,16.33
2019-04-27T17:06:04.131Z,16.50
2019-04-27T17:08:35.367Z,17.23
2019-04-27T17:11:13.017Z,16.70
2019-04-27T17:13:49.662Z,16.10
2019-04-27T17:16:58.033Z,16.43
2019-04-27T17:19:35.907Z,17.37
2019-04-27T17:22:10.363Z,18.03
2019-04-27T17:24:46.542Z,17.63
2019-04-27T17:27:22.833Z,17.50
2019-04-27T17:30:00.782Z,17.57
2019-04-27T17:32:39.481Z,17.53
2019-04-27T17:35:14.856Z,17.50
2019-04-27T17:37:48.832Z,18.47
2019-04-27T17:40:21.528Z,17.30
2019-04-27T17:42:54.452Z,16.87
2019-04-27T17:45:30.468Z,18.57
2019-04-27T17:48:06.869Z,18.17
2019-04-27T17:50:38.705Z,16.97
2019-04-27T17:53:11.825Z,16.73
2019-04-27T17:55:45.108Z,15.30
2019-04-27T17:58:20.928Z,16.20
2019-04-27T18:00:52.990Z,15.70
2019-04-27T18:03:26.138Z,13.57
2019-04-27T18:06:00.096Z,16.50
2019-04-27T18:08:33.082Z,15.43
2019-04-27T18:11:05.719Z,16.20
2019-04-27T18:13:42.036Z,15.60
2019-04-27T18:16:14.791Z,16.90
2019-04-27T18:19:00.089Z,17.13
2019-04-27T18:21:31.513Z,17.87
2019-04-27T18:24:10.771Z,19.97
2019-04-27T18:27:03.002Z,17.07
2019-04-27T18:29:33.952Z,18.77
2019-04-27T18:32:08.689Z,15.03
2019-04-27T18:34:41.150Z,17.33
2019-04-27T18:37:14.356Z,20.07
2019-04-27T18:39:50.896Z,19.20
2019-04-27T18:42:23.277Z,18.63
2019-04-27T18:45:06.277Z,17.90
2019-04-27T18:47:35.341Z,19.27
2019-04-27T18:50:24.472Z,17.70
2019-04-27T18:53:10.807Z,17.50
2019-04-27T18:55:43.927Z,20.60
2019-04-27T18:58:18.779Z,21.80
2019-04-27T19:00:51.349Z,22.13
2019-04-27T19:03:24.434Z,22.10
2019-04-27T19:05:57.842Z,21.97
2019-04-27T19:08:33.057Z,21.83
2019-04-27T19:11:06.301Z,20.13
2019-04-27T19:13:40.811Z,20.20
2019-04-27T19:16:15.067Z,19.70
2019-04-27T19:18:48.192Z,19.27
2019-04-27T19:21:20.414Z,19.57
2019-04-27T19:23:51.957Z,20.20
2019-04-27T19:26:45.426Z,21.67
2019-04-27T19:29:29.347Z,23.20
2019-04-27T19:32:02.797Z,20.07
2019-04-27T19:34:33.869Z,21.93
2019-04-27T19:37:09.950Z,20.60
2019-04-27T19:39:42.835Z,20.87
2019-04-27T19:42:14.418Z,21.33
2019-04-27T19:44:48.032Z,25.83
2019-04-27T19:47:20.939Z,23.30
2019-04-27T19:49:53.030Z,20.67
2019-04-27T19:52:28.217Z,23.77
2019-04-27T19:55:00.473Z,22.70
2019-04-27T19:57:38.554Z,22.40
2019-04-27T20:00:15.556Z,21.20
2019-04-27T20:02:48.346Z,22.70
2019-04-27T20:05:20.129Z,20.43
2019-04-27T20:07:52.690Z,21.47
2019-04-27T20:10:24.391Z,21.20
2019-04-27T20:12:56.630Z,22.20
2019-04-27T20:15:29.197Z,22.33
2019-04-27T20:18:02.966Z,21.60
2019-04-27T20:20:34.408Z,21.20
2019-04-27T20:23:06.230Z,23.53
2019-04-27T20:25:38.611Z,21.47
2019-04-27T20:28:12.054Z,22.47
2019-04-27T20:30:44.302Z,23.90
2019-04-27T20:33:16.431Z,22.70
2019-04-27T20:35:48.111Z,22.80
2019-04-27T20:38:21.406Z,21.70
2019-04-27T20:40:54.283Z,22.57
2019-04-27T20:43:26.082Z,21.97
2019-04-27T20:45:58.404Z,22.93
2019-04-27T20:48:31.307Z,22.90
2019-04-27T20:51:03.774Z,25.37
2019-04-27T20:53:41.952Z,22.53
2019-04-27T20:56:16.675Z,22.63
2019-04-27T20:58:48.714Z,23.73
2019-04-27T21:01:21.377Z,22.53
2019-04-27T21:03:57.479Z,23.70
2019-04-27T21:06:42.742Z,25.10
2019-04-27T21:09:16.713Z,23.80
2019-04-27T21:11:49.255Z,27.70
2019-04-27T21:14:21.745Z,32.33
2019-04-27T21:16:53.880Z,29.43
2019-04-27T21:19:26.134Z,30.60
2019-04-27T21:21:58.641Z,27.67
2019-04-27T21:24:31.145Z,29.47
2019-04-27T21:27:03.140Z,28.67
2019-04-27T21:29:34.755Z,25.90
2019-04-27T21:32:07.927Z,28.87
2019-04-27T21:34:42.017Z,26.83
2019-04-27T21:37:13.676Z,25.07
2019-04-27T21:39:45.111Z,28.57
2019-04-27T21:42:16.413Z,26.33
2019-04-27T21:44:48.153Z,27.07
2019-04-27T21:47:19.920Z,26.73
2019-04-27T21:49:51.803Z,28.90
2019-04-27T21:52:31.500Z,26.63
2019-04-27T21:55:02.995Z,27.37
2019-04-27T21:57:35.498Z,27.27
2019-04-27T22:00:16.538Z,28.30
2019-04-27T22:02:48.312Z,26.33
2019-04-27T22:05:21.007Z,27.90
2019-04-27T22:07:52.322Z,28.80
2019-04-27T22:10:23.713Z,30.30
2019-04-27T22:12:55.980Z,27.97
2019-04-27T22:15:28.074Z,28.90
2019-04-27T22:18:00.726Z,26.90
2019-04-27T22:20:34.377Z,27.60
2019-04-27T22:23:09.204Z,27.87
2019-04-27T22:25:42.180Z,27.43
2019-04-27T22:28:14.966Z,28.93
2019-04-27T22:30:46.452Z,27.20
2019-04-27T22:33:18.670Z,27.87
2019-04-27T22:35:51.769Z,27.30
2019-04-27T22:38:23.800Z,28.57
2019-04-27T22:41:17.520Z,28.87
2019-04-27T22:44:28.544Z,25.10
2019-04-27T22:47:01.047Z,25.63
2019-04-27T22:49:34.227Z,26.70
2019-04-27T22:52:05.430Z,27.20
2019-04-27T22:54:37.595Z,28.30
2019-04-27T22:57:18.552Z,26.43
2019-04-27T23:00:15.906Z,24.87
2019-04-27T23:02:54.206Z,28.87
2019-04-27T23:05:26.311Z,26.20
2019-04-27T23:07:57.641Z,25.73
2019-04-27T23:10:31.500Z,26.37
2019-04-27T23:13:03.494Z,28.03
2019-04-27T23:15:41.626Z,26.87
2019-04-27T23:18:13.666Z,27.90
2019-04-27T23:20:44.946Z,27.47
2019-04-27T23:23:17.120Z,25.77
2019-04-27T23:25:51.433Z,25.13
2019-04-27T23:28:22.959Z,23.87
2019-04-27T23:31:02.536Z,26.07
2019-04-27T23:33:34.758Z,24.93
2019-04-27T23:36:06.589Z,26.53
2019-04-27T23:38:40.848Z,26.57
2019-04-27T23:41:13.071Z,25.40
2019-04-27T23:43:45.279Z,26.00
2019-04-27T23:46:17.270Z,26.57
2019-04-27T23:48:51.952Z,25.00
2019-04-27T23:51:39.763Z,25.33
2019-04-27T23:54:12.521Z,26.43
2019-04-27T23:56:44.394Z,26.60
2019-04-27T23:59:24.583Z,26.20
